Time;durP1;ratioP1;P1;durP2;ratioP2;P2;SDS_P1;SDS_P2;PMS_P1;PMS_P2;Temp;Humidity;BMP_temperature;BMP_pressure;BME280_temperature;BME280_humidity;BME280_pressure;Samples;Min_cycle;Max_cycle;Signal;HPM_P1;HPM_P2
2023/05/12 00:00:34;;;;;;;10.52;6.80;;;11.90;99.90;;;;;;5135849;27;20062;-62
2023/05/12 00:03:02;;;;;;;11.45;7.40;;;11.80;99.90;;;;;;5136202;27;20051;-61
2023/05/12 00:05:29;;;;;;;11.35;7.70;;;12.00;99.90;;;;;;5135405;27;20375;-62
2023/05/12 00:07:55;;;;;;;10.60;7.00;;;11.90;99.90;;;;;;5136633;27;20076;-63
2023/05/12 00:10:22;;;;;;;11.13;7.22;;;12.00;99.90;;;;;;5136029;27;20058;-62
2023/05/12 00:12:48;;;;;;;9.60;7.13;;;11.90;99.90;;;;;;5136256;27;20039;-60
2023/05/12 00:15:15;;;;;;;11.77;6.90;;;12.00;99.90;;;;;;5135509;27;20603;-62
2023/05/12 00:17:41;;;;;;;12.40;7.70;;;11.80;99.90;;;;;;5135701;27;20336;-61
2023/05/12 00:20:08;;;;;;;12.38;7.18;;;11.90;99.90;;;;;;5135343;27;20054;-61
2023/05/12 00:22:35;;;;;;;11.45;7.88;;;11.80;99.90;;;;;;5135910;27;20051;-62
2023/05/12 00:25:01;;;;;;;10.65;7.50;;;11.80;99.90;;;;;;5135472;27;20047;-63
2023/05/12 00:27:30;;;;;;;10.15;7.28;;;11.90;99.90;;;;;;5135496;27;20063;-61
2023/05/12 00:29:57;;;;;;;9.68;6.78;;;11.80;99.90;;;;;;5117035;27;20484;-63
2023/05/12 00:32:25;;;;;;;11.93;7.90;;;11.90;99.90;;;;;;5135824;27;20417;-62
2023/05/12 00:34:53;;;;;;;11.85;8.38;;;11.80;99.90;;;;;;5135311;27;20050;-61
2023/05/12 00:37:19;;;;;;;12.80;8.18;;;11.80;99.90;;;;;;5135427;27;20462;-61
2023/05/12 00:39:45;;;;;;;11.38;7.30;;;11.90;99.90;;;;;;5135264;27;20047;-62
2023/05/12 00:42:12;;;;;;;13.55;7.95;;;11.90;99.90;;;;;;5135472;27;20354;-61
2023/05/12 00:44:38;;;;;;;11.77;7.55;;;11.80;99.90;;;;;;5135214;27;20043;-60
2023/05/12 00:47:04;;;;;;;10.02;7.13;;;11.90;99.90;;;;;;5135485;27;20104;-62
2023/05/12 00:49:31;;;;;;;10.93;7.10;;;11.80;99.90;;;;;;5134828;27;20043;-61
2023/05/12 00:51:58;;;;;;;10.02;6.82;;;11.80;99.90;;;;;;5135371;27;20047;-62
2023/05/12 00:54:26;;;;;;;8.70;6.43;;;11.90;99.90;;;;;;5134819;27;20459;-62
2023/05/12 00:56:52;;;;;;;9.20;6.07;;;11.80;99.90;;;;;;5135404;27;20051;-62
2023/05/12 00:59:18;;;;;;;9.80;7.38;;;11.90;99.90;;;;;;5135218;27;20363;-62
2023/05/12 01:01:46;;;;;;;9.75;6.53;;;11.80;99.90;;;;;;5134484;27;20050;-62
2023/05/12 01:04:12;;;;;;;9.13;6.30;;;11.90;99.90;;;;;;5135140;27;20057;-61
2023/05/12 01:06:48;;;;;;;8.20;5.30;;;11.90;99.90;;;;;;5135059;27;20047;-61
2023/05/12 01:09:14;;;;;;;9.20;5.93;;;11.80;99.90;;;;;;5135042;27;20070;-62
2023/05/12 01:11:41;;;;;;;9.07;5.63;;;11.80;99.90;;;;;;5134751;27;20087;-63
2023/05/12 01:14:07;;;;;;;8.77;6.20;;;11.80;99.90;;;;;;5134951;27;20035;-62
2023/05/12 01:16:38;;;;;;;9.13;6.13;;;11.90;99.90;;;;;;5134645;27;20043;-61
2023/05/12 01:19:06;;;;;;;8.73;5.80;;;11.90;99.90;;;;;;5134769;27;20074;-62
2023/05/12 01:21:32;;;;;;;9.27;5.88;;;11.90;99.90;;;;;;5133999;27;20339;-62
2023/05/12 01:24:05;;;;;;;8.35;5.80;;;11.80;99.90;;;;;;5134685;27;20051;-60
2023/05/12 01:26:32;;;;;;;9.82;6.32;;;12.00;99.90;;;;;;5134377;27;20043;-62
2023/05/12 01:29:00;;;;;;;8.80;6.05;;;11.90;99.90;;;;;;5134177;27;20069;-63
2023/05/12 01:31:27;;;;;;;11.70;6.63;;;11.90;99.90;;;;;;5134048;27;20046;-63
2023/05/12 01:33:54;;;;;;;11.27;7.00;;;11.90;99.90;;;;;;5134706;27;20299;-63
2023/05/12 01:36:20;;;;;;;9.50;6.40;;;12.00;99.90;;;;;;5134512;27;20055;-61
2023/05/12 01:38:46;;;;;;;11.10;7.30;;;12.00;99.90;;;;;;5134425;27;20051;-63
2023/05/12 01:41:12;;;;;;;12.70;8.15;;;11.80;99.90;;;;;;5133912;27;20047;-62
2023/05/12 01:43:39;;;;;;;13.57;8.38;;;12.00;99.90;;;;;;5134300;27;20047;-62
2023/05/12 01:46:05;;;;;;;15.60;8.25;;;11.80;99.90;;;;;;5133902;27;20047;-61
2023/05/12 01:48:31;;;;;;;14.82;8.98;;;12.00;99.90;;;;;;5134348;27;20047;-62
2023/05/12 01:51:00;;;;;;;15.80;9.77;;;12.00;99.90;;;;;;5133312;27;20390;-62
2023/05/12 01:53:27;;;;;;;16.58;10.60;;;11.90;99.90;;;;;;5134033;27;20076;-61
2023/05/12 01:55:53;;;;;;;18.48;10.90;;;12.00;99.90;;;;;;5115538;27;20046;-62
2023/05/12 01:58:19;;;;;;;21.17;11.15;;;11.80;99.90;;;;;;5134349;27;20047;-63
2023/05/12 02:00:45;;;;;;;25.30;12.45;;;12.00;99.90;;;;;;5133617;27;20111;-63
2023/05/12 02:03:11;;;;;;;21.48;12.05;;;11.90;99.90;;;;;;5134294;27;20358;-62
2023/05/12 02:05:38;;;;;;;23.83;12.43;;;11.90;99.90;;;;;;5133457;27;20345;-63
2023/05/12 02:08:04;;;;;;;23.58;12.48;;;12.00;99.90;;;;;;5133799;27;20047;-59
2023/05/12 02:10:30;;;;;;;25.13;12.95;;;11.90;99.90;;;;;;5133277;27;20411;-62
2023/05/12 02:12:57;;;;;;;23.20;12.77;;;12.00;99.90;;;;;;5133148;27;20043;-63
2023/05/12 02:15:24;;;;;;;29.33;14.93;;;12.00;99.90;;;;;;5133656;27;20096;-62
2023/05/12 02:17:53;;;;;;;29.25;14.23;;;11.90;99.90;;;;;;5133653;27;20108;-61
2023/05/12 02:20:19;;;;;;;29.20;15.45;;;12.00;99.90;;;;;;5133285;27;20050;-62
2023/05/12 02:22:45;;;;;;;31.02;17.25;;;12.00;99.90;;;;;;5133508;27;20111;-62
2023/05/12 02:25:11;;;;;;;34.88;17.23;;;12.00;99.90;;;;;;5133458;27;20047;-62
2023/05/12 02:27:38;;;;;;;36.63;18.80;;;12.00;99.90;;;;;;5133581;27;20140;-63
2023/05/12 02:30:05;;;;;;;33.35;18.17;;;11.90;99.90;;;;;;5115030;27;20066;-63
2023/05/12 02:32:31;;;;;;;35.35;18.48;;;12.00;99.90;;;;;;5133283;27;20043;-62
2023/05/12 02:34:58;;;;;;;33.08;17.08;;;12.10;99.90;;;;;;5132929;27;20043;-62
2023/05/12 02:37:24;;;;;;;35.75;18.27;;;11.90;99.90;;;;;;5133455;27;20062;-63
2023/05/12 02:39:50;;;;;;;31.85;17.17;;;11.90;99.90;;;;;;5132959;27;20095;-62
2023/05/12 02:42:16;;;;;;;40.40;19.08;;;12.00;99.90;;;;;;5133189;27;20050;-63
2023/05/12 02:44:43;;;;;;;39.17;18.60;;;12.00;99.90;;;;;;5132911;27;20116;-62
2023/05/12 02:47:09;;;;;;;37.20;18.23;;;12.10;99.90;;;;;;5132958;27;20047;-63
2023/05/12 02:49:35;;;;;;;40.63;19.23;;;11.90;99.90;;;;;;5132569;27;20047;-62
2023/05/12 02:52:01;;;;;;;45.42;21.30;;;11.90;99.90;;;;;;5133016;27;20039;-63
2023/05/12 02:54:28;;;;;;;40.45;20.55;;;12.00;99.90;;;;;;5132394;27;20466;-61
2023/05/12 02:56:56;;;;;;;46.20;19.15;;;12.00;99.90;;;;;;5112742;28;20047;-62
2023/05/12 02:59:23;;;;;;;40.03;20.67;;;12.10;99.90;;;;;;5112127;28;20048;-61
2023/05/12 03:01:49;;;;;;;40.17;19.63;;;12.00;99.90;;;;;;5112320;28;20424;-63
2023/05/12 03:04:15;;;;;;;42.53;21.00;;;12.10;99.90;;;;;;5112202;28;20057;-61
2023/05/12 03:06:41;;;;;;;42.17;20.80;;;12.10;99.90;;;;;;5131748;27;20051;-62
2023/05/12 03:09:08;;;;;;;39.40;20.10;;;12.00;99.90;;;;;;5132884;27;20042;-63
2023/05/12 03:11:35;;;;;;;42.53;19.65;;;12.00;99.90;;;;;;5132690;27;20073;-62
2023/05/12 03:14:01;;;;;;;45.42;21.45;;;12.00;99.90;;;;;;5132732;27;20108;-61
2023/05/12 03:16:27;;;;;;;41.80;20.88;;;12.00;99.90;;;;;;5132560;27;20100;-63
2023/05/12 03:18:53;;;;;;;40.90;20.40;;;12.10;99.90;;;;;;5132812;28;20051;-63
2023/05/12 03:21:20;;;;;;;38.10;20.80;;;12.00;99.90;;;;;;5132273;28;20039;-62
2023/05/12 03:23:46;;;;;;;40.47;20.60;;;12.20;99.90;;;;;;5132956;27;20103;-63
2023/05/12 03:26:12;;;;;;;42.08;21.05;;;12.00;99.90;;;;;;5136623;27;20043;-62
2023/05/12 03:28:38;;;;;;;42.70;21.85;;;12.10;99.90;;;;;;5136487;27;20055;-63
2023/05/12 03:31:05;;;;;;;36.83;19.45;;;12.10;99.90;;;;;;5136532;27;20486;-63
2023/05/12 03:33:31;;;;;;;42.42;21.55;;;12.20;99.90;;;;;;5136850;27;20070;-61
2023/05/12 03:35:57;;;;;;;40.88;21.23;;;12.30;99.90;;;;;;5136414;27;20047;-62
2023/05/12 03:38:23;;;;;;;42.78;21.02;;;12.20;99.90;;;;;;5136925;27;20054;-61
2023/05/12 03:40:52;;;;;;;41.53;22.23;;;12.30;99.90;;;;;;5136483;27;20058;-61
2023/05/12 03:43:20;;;;;;;40.20;20.98;;;12.10;99.90;;;;;;5136648;27;20112;-63
2023/05/12 03:45:46;;;;;;;40.67;20.08;;;12.30;99.90;;;;;;5136390;27;20194;-61
2023/05/12 03:48:12;;;;;;;42.15;19.55;;;12.30;99.90;;;;;;5136475;27;20044;-63
2023/05/12 03:50:38;;;;;;;40.65;21.35;;;12.20;99.90;;;;;;5135970;27;20051;-63
2023/05/12 03:53:04;;;;;;;41.00;21.30;;;12.20;99.90;;;;;;5136503;27;20051;-63
2023/05/12 03:55:31;;;;;;;42.15;21.88;;;12.20;99.90;;;;;;5136165;27;20374;-62
2023/05/12 03:57:57;;;;;;;40.15;19.95;;;12.20;99.90;;;;;;5136395;27;20043;-62
2023/05/12 04:00:23;;;;;;;42.88;21.08;;;12.30;99.90;;;;;;5135673;27;20051;-61
2023/05/12 04:02:49;;;;;;;43.65;21.00;;;12.20;99.90;;;;;;5136364;27;20043;-63
2023/05/12 04:05:16;;;;;;;37.95;20.63;;;12.40;99.90;;;;;;5135854;27;20416;-63
2023/05/12 04:07:42;;;;;;;44.55;21.80;;;12.30;99.90;;;;;;5135716;27;20482;-62
2023/05/12 04:10:08;;;;;;;39.08;21.40;;;12.40;99.90;;;;;;5135665;27;20043;-64
2023/05/12 04:12:34;;;;;;;42.17;22.10;;;12.20;99.90;;;;;;5136167;27;20108;-63
2023/05/12 04:15:01;;;;;;;43.80;21.27;;;12.40;99.90;;;;;;5136404;27;20047;-62
2023/05/12 04:17:27;;;;;;;42.55;21.10;;;12.30;99.90;;;;;;5101128;27;20062;-63
2023/05/12 04:19:54;;;;;;;46.97;21.70;;;12.40;99.90;;;;;;5135545;27;20051;-62
2023/05/12 04:22:20;;;;;;;45.38;23.63;;;12.30;99.90;;;;;;5136000;27;20039;-62
2023/05/12 04:24:46;;;;;;;48.92;22.60;;;12.30;99.90;;;;;;5135565;27;20062;-63
2023/05/12 04:27:13;;;;;;;46.38;22.63;;;12.40;99.90;;;;;;5135654;27;20051;-63
2023/05/12 04:29:39;;;;;;;49.65;23.50;;;12.30;99.90;;;;;;5135576;27;20043;-62
2023/05/12 04:32:06;;;;;;;47.22;22.55;;;12.50;99.90;;;;;;5135662;27;20047;-62
2023/05/12 04:34:32;;;;;;;44.55;23.10;;;12.30;99.90;;;;;;5134829;27;20104;-61
2023/05/12 04:36:58;;;;;;;46.17;23.83;;;12.40;99.90;;;;;;5135448;27;20055;-62
2023/05/12 04:39:24;;;;;;;45.90;21.67;;;12.20;99.90;;;;;;5135130;27;20266;-63
2023/05/12 04:41:51;;;;;;;42.95;22.48;;;12.20;99.90;;;;;;5135272;27;20467;-62
2023/05/12 04:44:17;;;;;;;39.53;21.88;;;12.40;99.90;;;;;;5135489;27;20051;-61
2023/05/12 04:46:43;;;;;;;38.38;21.23;;;12.50;99.90;;;;;;5135105;27;20059;-61
2023/05/12 04:49:10;;;;;;;42.80;22.13;;;12.30;99.90;;;;;;5135066;27;20111;-63
2023/05/12 04:51:41;;;;;;;42.30;22.42;;;12.30;99.90;;;;;;5135191;27;20069;-62
2023/05/12 04:54:10;;;;;;;39.88;21.52;;;12.30;99.90;;;;;;5135355;27;20043;-63
2023/05/12 04:56:36;;;;;;;42.53;21.92;;;12.40;99.90;;;;;;5134377;27;20108;-63
2023/05/12 04:59:02;;;;;;;40.65;23.45;;;12.40;99.90;;;;;;5133610;27;20090;-63
2023/05/12 05:01:29;;;;;;;40.30;20.77;;;12.60;99.90;;;;;;5134688;27;20096;-62
2023/05/12 05:03:55;;;;;;;37.83;20.13;;;12.50;99.90;;;;;;5134648;27;20047;-62
2023/05/12 05:06:21;;;;;;;36.55;21.67;;;12.60;99.90;;;;;;5133685;27;20375;-62
2023/05/12 05:08:47;;;;;;;38.17;20.55;;;12.70;99.90;;;;;;5134215;27;20039;-61
2023/05/12 05:11:14;;;;;;;38.28;21.10;;;12.60;99.90;;;;;;5133728;27;20096;-63
2023/05/12 05:13:40;;;;;;;37.90;20.30;;;12.60;99.90;;;;;;5133952;27;20524;-62
2023/05/12 05:16:06;;;;;;;37.90;21.27;;;12.60;99.90;;;;;;5133636;27;20050;-63
2023/05/12 05:18:33;;;;;;;36.10;20.70;;;12.60;99.90;;;;;;5133494;27;20375;-64
2023/05/12 05:20:59;;;;;;;38.47;21.58;;;12.80;99.90;;;;;;5133761;27;20070;-63
2023/05/12 05:23:25;;;;;;;36.33;20.02;;;12.80;99.90;;;;;;5134880;27;20055;-62
2023/05/12 05:25:52;;;;;;;41.95;20.60;;;12.90;99.90;;;;;;5134568;27;20100;-61
2023/05/12 05:28:18;;;;;;;38.03;20.10;;;12.90;99.90;;;;;;5116265;27;20047;-61
2023/05/12 05:30:44;;;;;;;40.65;23.52;;;12.90;99.90;;;;;;5134261;27;20594;-61
2023/05/12 05:33:11;;;;;;;39.20;21.13;;;13.00;99.90;;;;;;5134429;27;20088;-64
2023/05/12 05:35:38;;;;;;;41.53;22.33;;;13.00;99.90;;;;;;5133944;27;20043;-62
2023/05/12 05:38:04;;;;;;;36.13;20.05;;;13.00;99.90;;;;;;5134584;27;20043;-61
2023/05/12 05:40:30;;;;;;;39.22;22.27;;;12.90;99.90;;;;;;5134004;27;20103;-62
2023/05/12 05:42:56;;;;;;;40.05;21.90;;;13.00;99.90;;;;;;5134559;27;20047;-62
2023/05/12 05:45:23;;;;;;;37.97;20.27;;;13.10;99.90;;;;;;5134381;27;20437;-63
2023/05/12 05:47:51;;;;;;;36.67;22.38;;;13.10;99.90;;;;;;5133356;27;20077;-62
2023/05/12 05:50:17;;;;;;;37.45;20.58;;;13.00;99.90;;;;;;5133744;27;20061;-63
2023/05/12 05:52:43;;;;;;;35.30;21.15;;;13.10;99.90;;;;;;5116110;27;20451;-62
2023/05/12 05:55:09;;;;;;;37.83;22.35;;;13.10;99.90;;;;;;5133845;27;20196;-62
2023/05/12 05:57:36;;;;;;;36.45;21.35;;;13.20;99.90;;;;;;5134408;27;20070;-62
2023/05/12 06:00:04;;;;;;;36.45;21.65;;;13.20;99.90;;;;;;5133655;27;20039;-63
2023/05/12 06:02:32;;;;;;;37.42;22.40;;;13.30;99.90;;;;;;5133832;27;20047;-62
2023/05/12 06:04:59;;;;;;;36.15;21.45;;;13.40;99.90;;;;;;5133731;27;20055;-63
2023/05/12 06:07:25;;;;;;;35.78;21.13;;;13.40;99.90;;;;;;5115914;27;20459;-64
2023/05/12 06:09:54;;;;;;;34.40;20.70;;;13.40;99.90;;;;;;5115422;27;20459;-62
2023/05/12 06:12:20;;;;;;;36.70;21.13;;;13.50;99.90;;;;;;5134055;27;20058;-64
2023/05/12 06:14:47;;;;;;;36.40;20.95;;;13.40;99.90;;;;;;5115335;27;20051;-62
2023/05/12 06:17:13;;;;;;;36.95;20.48;;;13.40;99.90;;;;;;5115486;27;20353;-63
2023/05/12 06:19:39;;;;;;;36.60;21.10;;;13.50;99.90;;;;;;5132964;27;20417;-63
2023/05/12 06:22:05;;;;;;;34.25;21.27;;;13.40;99.90;;;;;;5133353;27;20551;-63
2023/05/12 06:24:32;;;;;;;38.92;22.10;;;13.50;99.90;;;;;;5133697;27;20051;-64
2023/05/12 06:26:58;;;;;;;34.20;21.27;;;13.50;99.90;;;;;;5133064;27;20051;-63
2023/05/12 06:29:24;;;;;;;35.13;21.02;;;13.50;99.90;;;;;;5133171;27;20043;-65
2023/05/12 06:31:50;;;;;;;35.90;19.80;;;13.60;99.90;;;;;;5133836;27;20066;-64
2023/05/12 06:34:17;;;;;;;36.85;21.85;;;13.70;99.90;;;;;;5097485;27;20482;-63
2023/05/12 06:36:43;;;;;;;34.80;20.63;;;13.70;99.90;;;;;;5131077;27;20039;-64
2023/05/12 06:39:10;;;;;;;37.05;22.63;;;13.70;99.90;;;;;;5133196;27;20116;-63
2023/05/12 06:41:36;;;;;;;34.20;20.63;;;13.80;99.90;;;;;;5115955;27;20059;-63
2023/05/12 06:44:05;;;;;;;35.10;20.70;;;13.60;99.90;;;;;;5113895;27;20051;-65
2023/05/12 06:46:31;;;;;;;35.55;21.83;;;13.80;99.90;;;;;;5115163;27;20047;-65
2023/05/12 06:48:59;;;;;;;36.38;21.48;;;13.80;99.90;;;;;;5133196;27;20043;-63
2023/05/12 06:51:25;;;;;;;31.75;20.25;;;13.80;99.90;;;;;;5133172;27;20477;-64
2023/05/12 06:53:51;;;;;;;34.45;20.95;;;13.90;99.90;;;;;;5115456;27;20393;-62
2023/05/12 06:56:18;;;;;;;31.38;19.83;;;13.80;99.90;;;;;;5133079;27;20478;-63
2023/05/12 06:58:45;;;;;;;32.25;19.17;;;14.00;99.90;;;;;;5132867;27;20062;-63
2023/05/12 07:01:11;;;;;;;32.50;19.80;;;14.10;99.90;;;;;;5115419;27;20051;-64
2023/05/12 07:03:37;;;;;;;34.13;19.10;;;14.10;99.90;;;;;;5133383;27;20051;-63
2023/05/12 07:06:03;;;;;;;30.13;19.20;;;14.20;99.90;;;;;;5133217;27;20065;-64
2023/05/12 07:08:30;;;;;;;31.00;19.20;;;14.20;99.90;;;;;;5132684;27;20047;-63
2023/05/12 07:10:59;;;;;;;30.17;18.58;;;14.30;99.90;;;;;;5115266;27;20047;-63
2023/05/12 07:13:25;;;;;;;32.03;19.45;;;14.20;99.90;;;;;;5115253;27;20036;-65
2023/05/12 07:15:52;;;;;;;31.67;20.13;;;14.30;99.90;;;;;;5115421;28;20363;-63
2023/05/12 07:18:19;;;;;;;32.75;20.23;;;14.50;99.90;;;;;;5114719;28;20039;-63
2023/05/12 07:20:45;;;;;;;31.50;18.98;;;14.60;99.90;;;;;;5133005;28;20055;-62
2023/05/12 07:23:12;;;;;;;30.92;19.25;;;14.70;99.90;;;;;;5115061;28;20100;-64
2023/05/12 07:25:38;;;;;;;29.13;17.95;;;14.60;99.90;;;;;;5133319;28;20047;-63
2023/05/12 07:28:05;;;;;;;31.08;19.02;;;14.70;99.90;;;;;;5132575;28;20054;-65
2023/05/12 07:30:31;;;;;;;28.38;18.52;;;14.70;99.90;;;;;;5133176;28;20097;-64
2023/05/12 07:32:59;;;;;;;29.40;18.38;;;14.60;99.90;;;;;;5133207;28;20367;-63
2023/05/12 07:35:26;;;;;;;28.85;17.65;;;14.70;99.90;;;;;;5132856;28;20035;-63
2023/05/12 07:37:53;;;;;;;30.52;18.20;;;14.90;99.90;;;;;;5133046;28;20362;-65
2023/05/12 07:40:19;;;;;;;28.45;18.90;;;14.90;99.90;;;;;;5133275;28;20051;-63
2023/05/12 07:42:45;;;;;;;26.30;17.95;;;15.10;99.90;;;;;;5133121;28;20047;-64
2023/05/12 07:45:11;;;;;;;27.17;19.27;;;15.30;99.90;;;;;;5132841;28;20416;-63
2023/05/12 07:47:38;;;;;;;28.35;18.80;;;15.40;99.90;;;;;;5132863;28;20047;-63
2023/05/12 07:50:05;;;;;;;28.98;19.55;;;15.50;99.90;;;;;;5132520;28;20467;-65
2023/05/12 07:52:32;;;;;;;28.30;19.55;;;15.60;99.90;;;;;;5133200;28;20043;-64
2023/05/12 07:54:59;;;;;;;30.02;19.15;;;15.60;99.90;;;;;;5132988;28;20116;-63
2023/05/12 07:57:25;;;;;;;27.13;18.77;;;15.70;99.90;;;;;;5133148;28;20043;-66
2023/05/12 07:59:51;;;;;;;27.10;18.55;;;15.80;99.90;;;;;;5133463;28;20127;-63
2023/05/12 08:02:19;;;;;;;27.90;17.60;;;15.90;99.90;;;;;;5132838;28;20062;-64
2023/05/12 08:04:45;;;;;;;27.08;19.23;;;16.00;99.90;;;;;;5114625;28;20085;-64
2023/05/12 08:07:11;;;;;;;29.48;18.50;;;16.00;99.90;;;;;;5112432;28;20047;-63
2023/05/12 08:09:38;;;;;;;25.10;16.85;;;16.00;99.90;;;;;;5111696;28;20048;-64
2023/05/12 08:12:04;;;;;;;30.00;18.65;;;16.10;99.90;;;;;;5116167;28;20510;-65
2023/05/12 08:14:31;;;;;;;28.88;19.45;;;16.00;99.90;;;;;;5116372;28;20052;-63
2023/05/12 08:16:57;;;;;;;25.77;17.55;;;16.20;99.90;;;;;;5117590;27;20431;-63
2023/05/12 08:19:23;;;;;;;28.25;17.75;;;16.20;99.90;;;;;;5118346;27;20175;-65
2023/05/12 08:21:50;;;;;;;28.83;19.02;;;16.20;99.90;;;;;;5118651;27;20383;-64
2023/05/12 08:24:16;;;;;;;28.55;19.45;;;16.20;99.90;;;;;;5101689;27;20370;-64
2023/05/12 08:26:43;;;;;;;27.35;19.15;;;16.20;99.90;;;;;;5117812;27;20512;-63
2023/05/12 08:29:09;;;;;;;26.25;17.70;;;16.20;99.90;;;;;;5117978;27;20047;-64
2023/05/12 08:31:37;;;;;;;30.05;18.77;;;16.20;99.90;;;;;;5118474;27;20415;-63
2023/05/12 08:34:03;;;;;;;25.65;17.83;;;16.20;99.90;;;;;;5136594;27;20054;-62
2023/05/12 08:36:30;;;;;;;26.27;18.33;;;16.30;99.90;;;;;;5136016;27;20039;-61
2023/05/12 08:38:56;;;;;;;26.00;17.27;;;16.30;99.90;;;;;;5136041;27;20080;-62
2023/05/12 08:41:44;;;;;;;26.40;17.33;;;16.20;99.90;;;;;;5136657;27;20066;-62
2023/05/12 08:44:11;;;;;;;25.45;17.33;;;16.30;99.90;;;;;;5136225;27;20043;-62
2023/05/12 08:46:37;;;;;;;26.77;17.33;;;16.30;99.90;;;;;;5136066;27;20046;-64
2023/05/12 08:49:10;;;;;;;25.55;16.80;;;16.30;99.90;;;;;;5117948;27;20047;-63
2023/05/12 08:51:39;;;;;;;26.08;18.65;;;16.40;99.90;;;;;;5118109;27;20232;-63
2023/05/12 08:54:07;;;;;;;27.30;17.70;;;16.40;99.90;;;;;;5136234;27;20466;-62
2023/05/12 08:56:34;;;;;;;24.70;17.38;;;16.50;99.90;;;;;;5117709;27;20074;-64
2023/05/12 08:59:02;;;;;;;26.35;17.48;;;16.50;99.90;;;;;;5135727;27;20043;-62
2023/05/12 09:01:29;;;;;;;25.35;16.73;;;16.70;99.90;;;;;;5136045;27;20463;-62
2023/05/12 09:03:55;;;;;;;25.17;17.63;;;16.90;99.90;;;;;;5117733;27;20051;-63
2023/05/12 09:06:22;;;;;;;25.95;18.20;;;16.90;99.90;;;;;;5135828;27;20047;-62
2023/05/12 09:08:48;;;;;;;24.58;17.08;;;17.10;99.90;;;;;;5135348;27;20039;-61
2023/05/12 09:11:16;;;;;;;25.83;19.33;;;17.30;99.90;;;;;;5135566;27;20452;-62
2023/05/12 09:14:03;;;;;;;24.70;18.50;;;17.30;99.90;;;;;;5135907;27;20455;-62
2023/05/12 09:16:33;;;;;;;23.25;16.77;;;17.40;99.90;;;;;;5117698;27;20439;-63
2023/05/12 09:19:00;;;;;;;22.80;16.90;;;17.40;99.90;;;;;;5135331;27;20375;-65
2023/05/12 09:21:27;;;;;;;24.10;17.30;;;17.40;99.90;;;;;;5135608;27;20684;-64
2023/05/12 09:24:05;;;;;;;22.13;16.10;;;17.60;99.90;;;;;;5135832;27;20055;-63
2023/05/12 09:26:48;;;;;;;21.77;16.92;;;17.80;99.90;;;;;;5135416;27;20047;-62
2023/05/12 09:29:15;;;;;;;20.75;15.88;;;17.90;99.90;;;;;;5134795;27;20513;-63
2023/05/12 09:31:54;;;;;;;24.73;16.95;;;17.90;99.90;;;;;;5135832;27;20049;-62
2023/05/12 09:34:50;;;;;;;20.77;15.40;;;18.00;99.90;;;;;;5135584;27;20058;-62
2023/05/12 09:37:17;;;;;;;21.45;16.15;;;18.10;99.90;;;;;;5097881;27;20055;-64
2023/05/12 09:39:44;;;;;;;23.75;16.35;;;18.20;99.90;;;;;;5135450;27;20437;-63
2023/05/12 09:42:11;;;;;;;22.75;16.65;;;18.20;99.90;;;;;;5135397;27;20047;-62
2023/05/12 09:44:38;;;;;;;21.20;16.23;;;18.20;99.90;;;;;;5135209;27;20059;-64
2023/05/12 09:47:06;;;;;;;23.58;17.65;;;18.20;99.90;;;;;;5116961;27;20043;-63
2023/05/12 09:49:32;;;;;;;24.27;18.17;;;18.30;99.90;;;;;;5134510;27;20385;-63
2023/05/12 09:51:58;;;;;;;23.33;17.00;;;18.40;99.90;;;;;;5135114;27;20088;-63
2023/05/12 09:54:30;;;;;;;22.33;17.45;;;18.40;99.90;;;;;;5135157;27;20086;-64
2023/05/12 09:56:58;;;;;;;24.48;18.63;;;18.60;99.90;;;;;;5134491;27;20046;-62
2023/05/12 09:59:30;;;;;;;23.45;17.40;;;18.50;99.90;;;;;;5134528;27;20049;-64
2023/05/12 10:01:59;;;;;;;19.80;15.13;;;18.50;99.90;;;;;;5134943;27;20051;-64
2023/05/12 10:04:27;;;;;;;21.63;15.05;;;18.80;99.90;;;;;;5134876;27;20047;-63
2023/05/12 10:06:54;;;;;;;20.02;16.05;;;19.00;99.90;;;;;;5116430;27;20047;-63
2023/05/12 10:09:47;;;;;;;21.20;15.85;;;19.20;99.90;;;;;;5134009;27;20099;-63
2023/05/12 10:12:15;;;;;;;19.23;14.82;;;19.30;99.90;;;;;;5111242;27;20057;-62
2023/05/12 10:14:42;;;;;;;20.48;15.07;;;19.60;99.90;;;;;;5134774;27;20055;-64
2023/05/12 10:17:09;;;;;;;20.83;15.00;;;19.60;99.90;;;;;;5114371;27;20051;-65
2023/05/12 10:19:37;;;;;;;19.02;15.50;;;19.60;99.90;;;;;;5132205;27;20158;-63
2023/05/12 10:22:06;;;;;;;19.58;15.25;;;19.70;99.90;;;;;;5132811;27;20081;-65
2023/05/12 10:24:33;;;;;;;19.77;15.45;;;19.80;99.90;;;;;;5132968;27;20083;-64
2023/05/12 10:27:02;;;;;;;18.20;14.18;;;19.80;99.90;;;;;;5132085;27;20074;-65
2023/05/12 10:29:31;;;;;;;14.40;12.35;;;19.90;99.90;;;;;;5113827;27;20494;-64
2023/05/12 10:32:00;;;;;;;17.17;12.95;;;19.90;99.90;;;;;;5115969;27;20046;-65
2023/05/12 10:34:35;;;;;;;17.33;14.15;;;19.70;99.90;;;;;;5115330;27;20043;-64
2023/05/12 10:37:09;;;;;;;16.90;13.45;;;19.80;99.90;;;;;;5095545;28;20047;-65
2023/05/12 10:39:45;;;;;;;16.65;12.68;;;19.80;99.90;;;;;;5113314;28;20352;-63
2023/05/12 10:42:11;;;;;;;14.10;10.80;;;19.80;99.90;;;;;;5113609;28;20447;-63
2023/05/12 10:44:51;;;;;;;12.95;10.40;;;20.10;99.90;;;;;;5109856;27;20382;-65
2023/05/12 10:47:17;;;;;;;10.32;8.18;;;20.10;99.90;;;;;;5133224;27;20036;-65
2023/05/12 10:49:57;;;;;;;12.40;9.23;;;20.10;99.90;;;;;;5115760;27;20478;-63
2023/05/12 10:52:23;;;;;;;13.02;11.07;;;20.30;99.90;;;;;;5134353;27;20046;-63
2023/05/12 10:54:49;;;;;;;13.80;10.55;;;20.40;99.90;;;;;;5133871;27;20043;-63
2023/05/12 10:57:19;;;;;;;12.30;8.30;;;20.50;99.90;;;;;;5133163;27;20054;-63
2023/05/12 10:59:51;;;;;;;5.78;5.18;;;20.70;99.90;;;;;;5133981;27;20050;-63
2023/05/12 11:02:21;;;;;;;6.38;5.13;;;20.70;99.90;;;;;;5133673;27;20543;-65
2023/05/12 11:04:50;;;;;;;7.35;6.38;;;20.80;99.90;;;;;;5115411;27;20046;-65
2023/05/12 11:07:20;;;;;;;8.07;7.13;;;20.80;99.90;;;;;;5132818;27;20047;-63
2023/05/12 11:09:47;;;;;;;7.57;6.47;;;20.80;99.90;;;;;;5133662;27;20051;-63
2023/05/12 11:12:14;;;;;;;7.70;6.40;;;20.90;99.90;;;;;;5115739;28;20062;-63
2023/05/12 11:14:43;;;;;;;7.78;6.28;;;20.90;99.90;;;;;;5133747;27;20113;-64
2023/05/12 11:17:10;;;;;;;9.02;7.13;;;21.00;99.90;;;;;;5133000;27;20103;-65
2023/05/12 11:19:37;;;;;;;7.78;7.00;;;21.10;99.90;;;;;;5098627;28;20058;-63
2023/05/12 11:22:06;;;;;;;9.23;7.15;;;21.20;99.90;;;;;;5115476;28;20071;-63
2023/05/12 11:24:33;;;;;;;8.27;6.30;;;21.40;99.90;;;;;;5133623;28;20359;-64
2023/05/12 11:26:59;;;;;;;6.70;5.07;;;21.30;99.90;;;;;;5132721;28;20463;-64
2023/05/12 11:29:25;;;;;;;6.65;5.93;;;21.20;99.90;;;;;;5114880;28;20451;-64
2023/05/12 11:31:52;;;;;;;6.60;5.00;;;21.10;99.90;;;;;;5115719;28;20043;-64
2023/05/12 11:34:23;;;;;;;8.13;6.97;;;21.30;99.90;;;;;;5133401;28;20047;-63
2023/05/12 11:36:54;;;;;;;9.25;8.00;;;21.50;99.90;;;;;;5094980;28;20092;-64
2023/05/12 11:39:31;;;;;;;8.40;7.57;;;21.50;99.90;;;;;;5094955;28;20056;-65
2023/05/12 11:42:07;;;;;;;8.10;7.25;;;21.50;99.90;;;;;;5113243;28;20052;-65
2023/05/12 11:44:33;;;;;;;7.82;7.03;;;21.50;99.90;;;;;;5126734;27;20054;-63
2023/05/12 11:47:13;;;;;;;9.23;7.25;;;21.40;99.90;;;;;;5137132;27;20524;-65
2023/05/12 11:49:48;;;;;;;8.55;7.60;;;21.40;99.90;;;;;;5137429;27;20460;-65
2023/05/12 11:52:15;;;;;;;8.20;7.43;;;21.50;99.90;;;;;;5137418;27;20130;-65
2023/05/12 11:54:51;;;;;;;7.60;6.47;;;21.50;99.90;;;;;;5137531;27;20065;-63
2023/05/12 11:57:32;;;;;;;6.45;5.75;;;21.50;99.90;;;;;;5118828;27;20051;-65
2023/05/12 12:00:01;;;;;;;6.95;5.63;;;21.60;99.90;;;;;;5137390;27;20068;-64
2023/05/12 12:02:29;;;;;;;6.15;5.53;;;21.70;99.90;;;;;;5137425;27;20183;-65
2023/05/12 12:04:56;;;;;;;6.55;5.47;;;21.80;99.90;;;;;;5118662;27;20100;-64
2023/05/12 12:07:33;;;;;;;6.25;5.65;;;21.90;99.90;;;;;;5118032;27;20047;-63
2023/05/12 12:10:13;;;;;;;6.80;6.10;;;22.00;99.90;;;;;;5101983;27;20463;-64
2023/05/12 12:12:41;;;;;;;6.55;5.70;;;21.90;99.90;;;;;;5117675;27;20043;-65
2023/05/12 12:15:08;;;;;;;6.03;5.43;;;22.00;99.90;;;;;;5118347;27;20111;-64
2023/05/12 12:17:35;;;;;;;6.50;5.65;;;22.00;99.90;;;;;;5118546;27;20055;-63
2023/05/12 12:20:02;;;;;;;6.13;5.43;;;22.10;99.90;;;;;;5118405;27;20050;-64
2023/05/12 12:22:32;;;;;;;6.75;5.70;;;22.10;99.90;;;;;;5101904;27;20063;-64
2023/05/12 12:25:00;;;;;;;6.68;5.53;;;22.20;99.90;;;;;;5118549;27;20051;-64
2023/05/12 12:27:26;;;;;;;6.28;5.60;;;22.30;99.90;;;;;;5118095;27;20059;-65
2023/05/12 12:29:52;;;;;;;5.97;5.45;;;22.30;99.90;;;;;;5118665;27;20043;-63
2023/05/12 12:32:18;;;;;;;6.88;5.60;;;22.40;99.90;;;;;;5135504;27;20053;-64